Time,TemperatureF,DewpointF,PressureIn,WindDirection,WindDirectionDegrees,WindSpeedMPH,WindSpeedGustMPH,Humidity,HourlyPrecipIn,Conditions,Clouds,dailyrainin,SoftwareType,DateUTC
2013-04-20 00:00:00,42.7,38.5,30.09,West,270,0.0,0.0,85,0.00,,SKC,0.00,VWS V14.01,2013-04-20 05:00:00,
2013-04-20 00:30:00,42.3,38.7,30.10,West,270,0.0,0.0,87,0.00,,SKC,0.00,VWS V14.01,2013-04-20 05:30:00,
2013-04-20 01:00:00,41.9,38.3,30.10,West,270,0.0,0.0,87,0.00,,SKC,0.00,VWS V14.01,2013-04-20 06:00:00,
2013-04-20 01:30:00,41.2,37.9,30.11,West,270,0.0,0.0,88,0.00,,SKC,0.00,VWS V14.01,2013-04-20 06:30:00,
2013-04-20 02:00:00,40.7,38.0,30.10,West,270,0.0,0.0,90,0.00,,SKC,0.00,VWS V14.01,2013-04-20 07:00:00,
2013-04-20 02:30:00,40.5,38.1,30.10,West,270,0.0,0.0,91,0.00,,SKC,0.00,VWS V14.01,2013-04-20 07:30:00,
2013-04-20 03:00:00,40.0,37.6,30.11,West,270,0.0,0.0,91,0.00,,SKC,0.00,VWS V14.01,2013-04-20 08:00:00,
2013-04-20 03:30:00,39.6,37.2,30.11,West,270,0.0,0.0,91,0.00,,SKC,0.00,VWS V14.01,2013-04-20 08:30:00,
2013-04-20 04:00:00,39.6,37.2,30.11,West,270,0.0,0.0,91,0.00,,SKC,0.00,VWS V14.01,2013-04-20 09:00:00,
2013-04-20 04:30:00,39.1,37.0,30.12,West,270,0.0,0.0,92,0.00,,SKC,0.00,VWS V14.01,2013-04-20 09:30:00,
2013-04-20 05:00:00,39.2,37.1,30.13,West,270,0.0,0.0,92,0.00,,SKC,0.00,VWS V14.01,2013-04-20 10:00:00,
2013-04-20 05:30:00,38.8,36.7,30.14,West,270,0.0,0.0,92,0.00,,SKC,0.00,VWS V14.01,2013-04-20 10:30:00,
2013-04-20 06:00:00,38.4,36.3,30.14,West,270,0.0,0.0,92,0.00,,SKC,0.00,VWS V14.01,2013-04-20 11:00:00,
2013-04-20 06:30:00,38.3,36.2,30.15,West,270,0.0,0.0,92,0.00,,SKC,0.00,VWS V14.01,2013-04-20 11:30:00,
2013-04-20 07:00:00,40.4,38.5,30.16,West,270,0.0,0.0,93,0.00,,SKC,0.00,VWS V14.01,2013-04-20 12:00:00,
2013-04-20 07:30:00,44.1,41.4,30.17,West,270,0.0,0.0,90,0.00,,SKC,0.00,VWS V14.01,2013-04-20 12:30:00,
2013-04-20 08:00:00,46.5,41.6,30.18,West,270,1.0,4.0,83,0.00,,SKC,0.00,VWS V14.01,2013-04-20 13:00:00,
2013-04-20 08:30:00,49.9,42.7,30.18,SW,225,1.0,4.0,76,0.00,,SKC,0.00,VWS V14.01,2013-04-20 13:30:00,
2013-04-20 09:00:00,52.4,42.2,30.19,SW,225,1.0,3.0,68,0.00,,SKC,0.00,VWS V14.01,2013-04-20 14:00:00,
2013-04-20 09:30:00,56.0,39.1,30.19,SSW,202,0.0,5.0,53,0.00,,SKC,0.00,VWS V14.01,2013-04-20 14:30:00,
2013-04-20 10:00:00,57.9,37.8,30.20,South,180,2.0,6.0,47,0.00,,SKC,0.00,VWS V14.01,2013-04-20 15:00:00,
2013-04-20 10:30:00,59.0,37.7,30.20,SSE,158,3.0,9.0,45,0.00,,SKC,0.00,VWS V14.01,2013-04-20 15:30:00,
2013-04-20 11:00:00,60.5,38.5,30.20,SSE,158,3.0,11.0,44,0.00,,SKC,0.00,VWS V14.01,2013-04-20 16:00:00,
2013-04-20 11:30:00,62.9,37.6,30.20,SW,225,2.0,10.0,39,0.00,,SKC,0.00,VWS V14.01,2013-04-20 16:30:00,
2013-04-20 12:00:00,62.7,38.0,30.20,SW,225,2.0,10.0,40,0.00,,SKC,0.00,VWS V14.01,2013-04-20 17:00:00,
2013-04-20 12:30:00,63.4,39.3,30.20,SW,225,2.0,10.0,41,0.00,,SKC,0.00,VWS V14.01,2013-04-20 17:30:00,
2013-04-20 13:00:00,63.0,37.7,30.18,North,0,2.0,11.0,39,0.00,,SKC,0.00,VWS V14.01,2013-04-20 18:00:00,
2013-04-20 13:30:00,63.8,38.4,30.18,North,0,2.0,9.0,39,0.00,,SKC,0.00,VWS V14.01,2013-04-20 18:30:00,
2013-04-20 14:00:00,63.8,39.7,30.18,North,0,1.0,11.0,41,0.00,,SKC,0.00,VWS V14.01,2013-04-20 19:00:00,
2013-04-20 14:30:00,65.0,41.4,30.17,SSW,202,1.0,8.0,42,0.00,,SKC,0.00,VWS V14.01,2013-04-20 19:30:00,
2013-04-20 15:00:00,64.4,38.3,30.16,NNE,22,2.0,12.0,38,0.00,,SKC,0.00,VWS V14.01,2013-04-20 20:00:00,
2013-04-20 15:30:00,65.1,39.5,30.15,North,0,2.0,10.0,39,0.00,,SKC,0.00,VWS V14.01,2013-04-20 20:30:00,
2013-04-20 16:00:00,65.3,39.1,30.14,North,0,3.0,11.0,38,0.00,,SKC,0.00,VWS V14.01,2013-04-20 21:00:00,
2013-04-20 16:30:00,65.7,39.4,30.14,North,0,3.0,12.0,38,0.00,,SKC,0.00,VWS V14.01,2013-04-20 21:30:00,
2013-04-20 17:00:00,65.1,40.8,30.13,NNE,22,1.0,10.0,41,0.00,,SKC,0.00,VWS V14.01,2013-04-20 22:00:00,
2013-04-20 17:30:00,65.2,40.9,30.13,North,0,2.0,12.0,41,0.00,,SKC,0.00,VWS V14.01,2013-04-20 22:30:00,
2013-04-20 18:00:00,64.5,40.3,30.13,NW,315,1.0,8.0,41,0.00,,SKC,0.00,VWS V14.01,2013-04-20 23:00:00,
2013-04-20 18:30:00,64.2,40.0,30.12,NNW,338,3.0,9.0,41,0.00,,SKC,0.00,VWS V14.01,2013-04-20 23:30:00,
2013-04-20 19:00:00,63.8,41.5,30.13,NNE,22,2.0,7.0,44,0.00,,SKC,0.00,VWS V14.01,2013-04-21 00:00:00,
2013-04-20 19:30:00,62.7,42.2,30.14,NNE,22,3.0,8.0,47,0.00,,SKC,0.00,VWS V14.01,2013-04-21 00:30:00,
2013-04-20 20:00:00,60.8,42.6,30.16,North,0,1.0,4.0,51,0.00,,SKC,0.00,VWS V14.01,2013-04-21 01:00:00,
2013-04-20 20:30:00,59.0,41.9,30.16,North,0,1.0,4.0,53,0.00,,SKC,0.00,VWS V14.01,2013-04-21 01:30:00,
2013-04-20 21:00:00,58.2,43.1,30.18,North,0,2.0,5.0,57,0.00,,SKC,0.00,VWS V14.01,2013-04-21 02:00:00,
2013-04-20 21:30:00,57.2,42.6,30.19,North,0,2.0,4.0,58,0.00,,SKC,0.00,VWS V14.01,2013-04-21 02:30:00,
2013-04-20 22:00:00,56.4,42.7,30.19,North,0,1.0,4.0,60,0.00,,SKC,0.00,VWS V14.01,2013-04-21 03:00:00,
2013-04-20 22:30:00,55.7,41.6,30.20,North,0,1.0,4.0,59,0.00,,SKC,0.00,VWS V14.01,2013-04-21 03:30:00,
2013-04-20 23:00:00,54.5,41.3,30.20,North,0,0.0,4.0,61,0.00,,SKC,0.00,VWS V14.01,2013-04-21 04:00:00,
2013-04-20 23:30:00,53.1,41.7,30.20,North,0,1.0,3.0,65,0.00,,SKC,0.00,VWS V14.01,2013-04-21 04:30:00,